createdAt,value
2019-03-28T00:00:05.054Z,992.88
2019-03-28T00:01:05.090Z,993.04
2019-03-28T00:02:04.791Z,992.98
2019-03-28T00:03:04.853Z,992.90
2019-03-28T00:04:05.225Z,992.85
2019-03-28T00:05:05.345Z,993.10
2019-03-28T00:06:04.824Z,992.90
2019-03-28T00:07:04.840Z,992.93
2019-03-28T00:08:05.036Z,992.77
2019-03-28T00:09:08.101Z,992.96
2019-03-28T00:10:04.922Z,992.93
2019-03-28T00:11:04.989Z,992.74
2019-03-28T00:12:05.223Z,992.96
2019-03-28T00:13:05.478Z,992.85
2019-03-28T00:14:04.587Z,992.90
2019-03-28T00:15:04.783Z,992.93
2019-03-28T00:16:04.934Z,992.82
2019-03-28T00:17:04.990Z,992.90
2019-03-28T00:18:05.167Z,992.90
2019-03-28T00:19:05.260Z,992.90
2019-03-28T00:20:05.581Z,992.71
2019-03-28T00:21:04.608Z,992.80
2019-03-28T00:22:06.238Z,992.93
2019-03-28T00:23:04.906Z,992.74
2019-03-28T00:24:05.210Z,992.74
2019-03-28T00:25:05.329Z,992.74
2019-03-28T00:26:05.462Z,992.83
2019-03-28T00:27:04.624Z,992.66
2019-03-28T00:28:05.121Z,992.74
2019-03-28T00:29:05.270Z,992.80
2019-03-28T00:30:05.320Z,992.74
2019-03-28T00:31:04.781Z,992.63
2019-03-28T00:32:05.232Z,992.74
2019-03-28T00:33:05.451Z,992.74
2019-03-28T00:34:05.477Z,992.71
2019-03-28T00:35:04.522Z,992.74
2019-03-28T00:36:05.206Z,992.85
2019-03-28T00:37:08.994Z,992.74
2019-03-28T00:38:04.934Z,992.68
2019-03-28T00:39:04.623Z,992.71
2019-03-28T00:40:05.631Z,992.80
2019-03-28T00:41:04.540Z,992.80
2019-03-28T00:42:04.866Z,992.77
2019-03-28T00:43:05.263Z,992.80
2019-03-28T00:44:05.273Z,992.74
2019-03-28T00:45:04.651Z,992.74
2019-03-28T00:46:04.830Z,992.80
2019-03-28T00:47:06.731Z,992.63
2019-03-28T00:48:05.362Z,992.74
2019-03-28T00:49:05.354Z,992.68
2019-03-28T00:50:04.608Z,992.68
2019-03-28T00:51:04.660Z,992.65
2019-03-28T00:52:05.356Z,992.68
2019-03-28T00:53:10.369Z,992.74
2019-03-28T00:54:04.792Z,992.68
2019-03-28T00:55:05.100Z,992.66
2019-03-28T00:56:05.118Z,992.63
2019-03-28T00:57:04.624Z,992.74
2019-03-28T00:58:04.982Z,992.63
2019-03-28T00:59:04.973Z,992.66
2019-03-28T01:00:05.090Z,992.68
2019-03-28T01:01:05.626Z,992.68
2019-03-28T01:02:05.471Z,992.66
2019-03-28T01:03:05.541Z,992.57
2019-03-28T01:04:04.988Z,992.66
2019-03-28T01:05:05.152Z,992.74
2019-03-28T01:06:05.505Z,992.71
2019-03-28T01:07:05.012Z,992.63
2019-03-28T01:08:05.441Z,992.85
2019-03-28T01:09:05.586Z,992.71
2019-03-28T01:10:04.770Z,992.77
2019-03-28T01:11:04.970Z,992.74
2019-03-28T01:12:05.058Z,992.74
2019-03-28T01:13:05.235Z,992.63
2019-03-28T01:14:04.987Z,992.77
2019-03-28T01:15:04.947Z,992.83
2019-03-28T01:16:04.729Z,992.71
2019-03-28T01:17:05.562Z,992.80
2019-03-28T01:18:05.251Z,992.74
2019-03-28T01:19:05.353Z,992.80
2019-03-28T01:20:04.846Z,992.74
2019-03-28T01:21:05.267Z,992.80
2019-03-28T01:22:05.234Z,992.68
2019-03-28T01:23:05.102Z,992.85
2019-03-28T01:24:05.081Z,992.77
2019-03-28T01:25:04.827Z,992.85
2019-03-28T01:26:05.491Z,992.74
2019-03-28T01:27:05.322Z,992.68
2019-03-28T01:28:04.804Z,992.85
2019-03-28T01:29:05.217Z,992.71
2019-03-28T01:30:04.772Z,992.85
2019-03-28T01:31:04.765Z,992.77
2019-03-28T01:32:04.847Z,992.85
2019-03-28T01:33:05.448Z,992.88
2019-03-28T01:34:04.841Z,992.85
2019-03-28T01:35:05.128Z,992.77
2019-03-28T01:36:05.016Z,992.71
2019-03-28T01:37:04.676Z,992.80
2019-03-28T01:38:04.972Z,992.83
2019-03-28T01:39:04.797Z,992.80
2019-03-28T01:40:05.270Z,992.80
2019-03-28T01:41:05.419Z,992.74
2019-03-28T01:42:04.833Z,992.74
2019-03-28T01:43:05.375Z,992.80
2019-03-28T01:44:05.447Z,992.68
2019-03-28T01:45:05.359Z,992.88
2019-03-28T01:46:04.557Z,992.80
2019-03-28T01:47:04.765Z,992.66
2019-03-28T01:48:05.143Z,992.85
2019-03-28T01:49:05.140Z,992.74
2019-03-28T01:50:05.507Z,992.83
2019-03-28T01:51:05.173Z,992.85
2019-03-28T01:52:05.029Z,992.77
2019-03-28T01:53:05.185Z,992.60
2019-03-28T01:54:04.786Z,992.68
2019-03-28T01:55:05.222Z,992.83
2019-03-28T01:56:05.230Z,992.66
2019-03-28T01:57:11.838Z,992.77
2019-03-28T01:58:05.566Z,992.63
2019-03-28T01:59:05.512Z,992.69
2019-03-28T02:00:05.523Z,992.68
2019-03-28T02:01:09.588Z,992.66
2019-03-28T02:02:05.141Z,992.63
2019-03-28T02:03:04.672Z,992.74
2019-03-28T02:04:05.052Z,992.74
2019-03-28T02:05:05.675Z,992.74
2019-03-28T02:06:04.620Z,992.80
2019-03-28T02:07:04.883Z,992.71
2019-03-28T02:08:05.203Z,992.74
2019-03-28T02:09:06.105Z,992.66
2019-03-28T02:10:05.528Z,992.60
2019-03-28T02:11:04.505Z,992.60
2019-03-28T02:12:05.758Z,992.63
2019-03-28T02:13:04.882Z,992.63
2019-03-28T02:14:04.901Z,992.57
2019-03-28T02:15:04.993Z,992.63
2019-03-28T02:16:05.551Z,992.66
2019-03-28T02:17:04.731Z,992.66
2019-03-28T02:18:04.958Z,992.66
2019-03-28T02:19:04.966Z,992.69
2019-03-28T02:20:05.149Z,992.74
2019-03-28T02:21:10.059Z,992.74
2019-03-28T02:22:04.539Z,992.71
2019-03-28T02:23:05.081Z,992.57
2019-03-28T02:24:04.824Z,992.63
2019-03-28T02:25:05.238Z,992.69
2019-03-28T02:26:05.445Z,992.69
2019-03-28T02:27:04.781Z,992.77
2019-03-28T02:28:04.823Z,992.60
2019-03-28T02:29:05.120Z,992.63
2019-03-28T02:30:05.437Z,992.66
2019-03-28T02:31:05.051Z,992.57
2019-03-28T02:32:04.974Z,992.69
2019-03-28T02:33:05.433Z,992.63
2019-03-28T02:34:04.933Z,992.71
2019-03-28T02:35:05.145Z,992.77
2019-03-28T02:36:05.167Z,992.69
2019-03-28T02:37:05.259Z,992.63
2019-03-28T02:38:05.448Z,992.69
2019-03-28T02:39:05.237Z,992.71
2019-03-28T02:40:04.845Z,992.69
2019-03-28T02:41:04.568Z,992.71
2019-03-28T02:42:04.825Z,992.66
2019-03-28T02:43:10.222Z,992.60
2019-03-28T02:44:04.647Z,992.77
2019-03-28T02:45:04.820Z,992.71
2019-03-28T02:46:04.955Z,992.74
2019-03-28T02:47:05.366Z,992.83
2019-03-28T02:48:05.389Z,992.55
2019-03-28T02:49:04.568Z,992.72
2019-03-28T02:50:04.880Z,992.69
2019-03-28T02:51:05.065Z,992.72
2019-03-28T02:52:05.398Z,992.63
2019-03-28T02:53:04.613Z,992.96
2019-03-28T02:54:05.871Z,992.72
2019-03-28T02:55:04.631Z,992.80
2019-03-28T02:56:05.009Z,992.69
2019-03-28T02:57:05.433Z,992.72
2019-03-28T02:58:05.054Z,992.74
2019-03-28T02:59:04.525Z,992.80
2019-03-28T03:00:05.200Z,992.69
2019-03-28T03:01:04.772Z,992.57
2019-03-28T03:02:05.541Z,992.77
2019-03-28T03:03:04.775Z,992.83
2019-03-28T03:04:04.785Z,992.69
2019-03-28T03:05:04.840Z,992.77
2019-03-28T03:06:05.054Z,992.80
2019-03-28T03:07:05.131Z,992.72
2019-03-28T03:08:04.633Z,992.77
2019-03-28T03:09:04.823Z,992.74
2019-03-28T03:10:05.271Z,992.52
2019-03-28T03:11:04.516Z,992.72
2019-03-28T03:12:04.866Z,992.72
2019-03-28T03:13:04.987Z,992.72
2019-03-28T03:14:05.152Z,992.66
2019-03-28T03:15:05.340Z,992.69
2019-03-28T03:16:04.608Z,992.80
2019-03-28T03:17:05.217Z,992.69
2019-03-28T03:18:04.911Z,992.66
2019-03-28T03:19:05.198Z,992.63
2019-03-28T03:20:05.374Z,992.75
2019-03-28T03:21:04.599Z,992.66
2019-03-28T03:22:04.643Z,992.77
2019-03-28T03:23:04.940Z,992.72
2019-03-28T03:24:05.063Z,992.52
2019-03-28T03:25:05.257Z,992.69
2019-03-28T03:26:05.199Z,992.63
2019-03-28T03:27:05.430Z,992.80
2019-03-28T03:28:05.449Z,992.69
2019-03-28T03:29:04.880Z,992.72
2019-03-28T03:30:05.356Z,992.83
2019-03-28T03:31:04.849Z,992.83
2019-03-28T03:32:05.240Z,992.75
2019-03-28T03:33:05.461Z,992.75
2019-03-28T03:34:06.036Z,992.83
2019-03-28T03:35:04.763Z,992.58
2019-03-28T03:36:05.326Z,992.75
2019-03-28T03:37:04.974Z,992.77
2019-03-28T03:38:05.228Z,992.83
2019-03-28T03:39:05.296Z,992.66
2019-03-28T03:40:06.191Z,992.83
2019-03-28T03:41:04.980Z,992.86
2019-03-28T03:42:05.266Z,992.77
2019-03-28T03:43:09.828Z,992.86
2019-03-28T03:44:05.107Z,992.66
2019-03-28T03:45:05.343Z,992.91
2019-03-28T03:46:05.305Z,992.69
2019-03-28T03:47:04.640Z,992.86
2019-03-28T03:48:04.711Z,992.78
2019-03-28T03:49:05.486Z,992.83
2019-03-28T03:50:05.277Z,992.86
2019-03-28T03:51:04.955Z,992.83
2019-03-28T03:52:05.051Z,992.83
2019-03-28T03:53:05.181Z,992.83
2019-03-28T03:54:05.311Z,992.78
2019-03-28T03:55:05.089Z,992.72
2019-03-28T03:56:04.590Z,992.78
2019-03-28T03:57:04.754Z,992.78
2019-03-28T03:58:16.939Z,992.86
2019-03-28T03:59:05.167Z,992.86
2019-03-28T04:00:05.520Z,992.83
2019-03-28T04:01:05.121Z,992.66
2019-03-28T04:02:05.323Z,992.80
2019-03-28T04:03:10.503Z,992.69
2019-03-28T04:04:04.638Z,992.86
2019-03-28T04:05:04.848Z,992.72
2019-03-28T04:06:05.249Z,992.78
2019-03-28T04:07:05.497Z,992.78
2019-03-28T04:08:04.610Z,992.75
2019-03-28T04:09:04.622Z,992.83
2019-03-28T04:10:04.894Z,992.89
2019-03-28T04:11:05.601Z,992.80
2019-03-28T04:12:04.767Z,992.89
2019-03-28T04:13:04.613Z,992.91
2019-03-28T04:14:05.251Z,992.83
2019-03-28T04:15:05.112Z,992.86
2019-03-28T04:16:04.548Z,992.94
2019-03-28T04:17:05.197Z,993.05
2019-03-28T04:18:05.189Z,992.80
2019-03-28T04:19:06.216Z,992.89
2019-03-28T04:20:05.062Z,992.80
2019-03-28T04:21:05.165Z,992.86
2019-03-28T04:22:04.655Z,992.96
2019-03-28T04:23:04.842Z,992.94
2019-03-28T04:24:05.471Z,992.91
2019-03-28T04:25:04.851Z,992.89
2019-03-28T04:26:06.349Z,992.86
2019-03-28T04:27:05.097Z,993.05
2019-03-28T04:28:05.064Z,993.05
2019-03-28T04:29:05.578Z,992.94
2019-03-28T04:30:05.098Z,992.89
2019-03-28T04:31:04.635Z,992.99
2019-03-28T04:32:05.355Z,993.05
2019-03-28T04:33:05.115Z,993.05
2019-03-28T04:34:09.466Z,992.94
2019-03-28T04:35:05.252Z,992.86
2019-03-28T04:36:06.053Z,993.08
2019-03-28T04:37:04.646Z,992.94
2019-03-28T04:38:04.703Z,992.94
2019-03-28T04:39:05.151Z,993.11
2019-03-28T04:40:05.240Z,993.05
2019-03-28T04:41:04.923Z,992.96
2019-03-28T04:42:05.376Z,993.25
2019-03-28T04:43:10.332Z,992.91
2019-03-28T04:44:04.731Z,993.05
2019-03-28T04:45:05.984Z,992.96
2019-03-28T04:46:04.641Z,992.99
2019-03-28T04:47:04.692Z,992.99
2019-03-28T04:48:04.973Z,992.86
2019-03-28T04:49:05.135Z,993.08
2019-03-28T04:50:05.309Z,992.96
2019-03-28T04:51:05.340Z,993.05
2019-03-28T04:52:05.031Z,992.99
2019-03-28T04:53:05.255Z,993.08
2019-03-28T04:54:04.529Z,992.99
2019-03-28T04:55:04.973Z,993.11
2019-03-28T04:56:05.466Z,993.08
2019-03-28T04:57:05.489Z,992.99
2019-03-28T04:58:04.782Z,992.96
2019-03-28T04:59:05.064Z,992.96
2019-03-28T05:00:05.217Z,993.14
2019-03-28T05:01:05.346Z,993.05
2019-03-28T05:02:05.759Z,992.96
2019-03-28T05:03:04.761Z,993.05
2019-03-28T05:04:04.828Z,993.11
2019-03-28T05:05:04.973Z,993.19
2019-03-28T05:06:05.116Z,993.08
2019-03-28T05:07:05.048Z,993.14
2019-03-28T05:08:05.413Z,993.08
2019-03-28T05:09:10.129Z,993.16
2019-03-28T05:10:04.617Z,993.11
2019-03-28T05:11:04.950Z,993.05
2019-03-28T05:12:04.847Z,993.08
2019-03-28T05:13:05.005Z,993.19
2019-03-28T05:14:05.023Z,993.08
2019-03-28T05:15:05.028Z,993.22
2019-03-28T05:16:05.029Z,993.14
2019-03-28T05:17:05.020Z,993.11
2019-03-28T05:18:05.330Z,993.22
2019-03-28T05:19:05.037Z,993.14
2019-03-28T05:20:05.235Z,993.11
2019-03-28T05:21:04.975Z,993.19
2019-03-28T05:22:05.487Z,993.11
2019-03-28T05:23:04.852Z,993.25
2019-03-28T05:24:05.396Z,993.25
2019-03-28T05:25:06.177Z,993.14
2019-03-28T05:26:04.616Z,993.19
2019-03-28T05:27:04.873Z,993.27
2019-03-28T05:28:05.411Z,993.19
2019-03-28T05:29:04.992Z,993.14
2019-03-28T05:30:07.101Z,993.16
2019-03-28T05:31:04.688Z,993.30
2019-03-28T05:32:04.982Z,993.22
2019-03-28T05:33:04.694Z,993.22
2019-03-28T05:34:04.803Z,993.19
2019-03-28T05:35:05.185Z,993.25
2019-03-28T05:36:05.405Z,993.32
2019-03-28T05:37:04.648Z,993.32
2019-03-28T05:38:04.887Z,993.30
2019-03-28T05:39:05.576Z,993.16
2019-03-28T05:40:04.973Z,993.27
2019-03-28T05:41:04.622Z,993.27
2019-03-28T05:42:05.474Z,993.27
2019-03-28T05:43:09.806Z,993.25
2019-03-28T05:44:05.235Z,993.25
2019-03-28T05:45:05.361Z,993.27
2019-03-28T05:46:04.586Z,993.30
2019-03-28T05:47:04.647Z,993.32
2019-03-28T05:48:05.421Z,993.32
2019-03-28T05:49:05.006Z,993.30
2019-03-28T05:50:05.377Z,993.30
2019-03-28T05:51:05.477Z,993.35
2019-03-28T05:52:04.596Z,993.25
2019-03-28T05:53:04.846Z,993.38
2019-03-28T05:54:05.471Z,993.25
2019-03-28T05:55:05.891Z,993.35
2019-03-28T05:56:05.540Z,993.32
2019-03-28T05:57:04.663Z,993.44
2019-03-28T05:58:04.778Z,993.41
2019-03-28T05:59:11.596Z,993.29
2019-03-28T06:00:05.293Z,993.52
2019-03-28T06:01:06.352Z,993.25
2019-03-28T06:02:05.009Z,993.35
2019-03-28T06:03:10.312Z,993.44
2019-03-28T06:04:05.416Z,993.44
2019-03-28T06:05:05.592Z,993.44
2019-03-28T06:06:04.639Z,993.38
2019-03-28T06:07:05.335Z,993.41
2019-03-28T06:08:04.967Z,993.38
2019-03-28T06:09:04.982Z,993.41
2019-03-28T06:10:04.518Z,993.38
2019-03-28T06:11:05.154Z,993.32
2019-03-28T06:12:04.975Z,993.41
2019-03-28T06:13:05.014Z,993.35
2019-03-28T06:14:04.874Z,993.35
2019-03-28T06:15:05.468Z,993.44
2019-03-28T06:16:05.351Z,993.49
2019-03-28T06:17:05.470Z,993.44
2019-03-28T06:18:05.029Z,993.55
2019-03-28T06:19:05.213Z,993.46
2019-03-28T06:20:04.852Z,993.46
2019-03-28T06:21:05.012Z,993.46
2019-03-28T06:22:05.148Z,993.41
2019-03-28T06:23:04.611Z,993.49
2019-03-28T06:24:05.706Z,993.52
2019-03-28T06:25:06.479Z,993.43
2019-03-28T06:26:05.205Z,993.55
2019-03-28T06:27:05.671Z,993.58
2019-03-28T06:28:04.828Z,993.55
2019-03-28T06:29:04.921Z,993.38
2019-03-28T06:30:05.446Z,993.55
2019-03-28T06:31:04.578Z,993.49
2019-03-28T06:32:05.185Z,993.46
2019-03-28T06:33:04.769Z,993.49
2019-03-28T06:34:04.964Z,993.52
2019-03-28T06:35:05.135Z,993.57
2019-03-28T06:36:05.287Z,993.63
2019-03-28T06:37:06.380Z,993.52
2019-03-28T06:38:04.660Z,993.60
2019-03-28T06:39:04.747Z,993.60
2019-03-28T06:40:05.961Z,993.57
2019-03-28T06:41:04.917Z,993.63
2019-03-28T06:42:05.160Z,993.60
2019-03-28T06:43:09.821Z,993.49
2019-03-28T06:44:05.094Z,993.66
2019-03-28T06:45:04.800Z,993.69
2019-03-28T06:46:04.922Z,993.71
2019-03-28T06:47:05.096Z,993.46
2019-03-28T06:48:05.291Z,993.66
2019-03-28T06:49:04.771Z,993.66
2019-03-28T06:50:05.060Z,993.60
2019-03-28T06:51:05.128Z,993.57
2019-03-28T06:52:05.387Z,993.71
2019-03-28T06:53:05.567Z,993.63
2019-03-28T06:54:04.983Z,993.49
2019-03-28T06:55:05.016Z,993.54
2019-03-28T06:56:04.695Z,993.60
2019-03-28T06:57:05.050Z,993.52
2019-03-28T06:58:04.655Z,993.69
2019-03-28T06:59:04.849Z,993.66
2019-03-28T07:00:05.581Z,993.49
2019-03-28T07:01:05.242Z,993.49
2019-03-28T07:02:04.687Z,993.49
2019-03-28T07:03:04.815Z,993.54
2019-03-28T07:04:05.110Z,993.46
2019-03-28T07:05:05.366Z,993.63
2019-03-28T07:06:04.722Z,993.54
2019-03-28T07:07:04.927Z,993.49
2019-03-28T07:08:04.972Z,993.54
2019-03-28T07:09:05.645Z,993.49
2019-03-28T07:10:05.104Z,993.57
2019-03-28T07:11:04.591Z,993.60
2019-03-28T07:12:05.366Z,993.65
2019-03-28T07:13:04.961Z,993.54
2019-03-28T07:14:05.467Z,993.57
2019-03-28T07:15:04.632Z,993.63
2019-03-28T07:16:04.901Z,993.71
2019-03-28T07:17:05.015Z,993.60
2019-03-28T07:18:04.829Z,993.68
2019-03-28T07:19:05.485Z,993.63
2019-03-28T07:20:08.783Z,993.54
2019-03-28T07:21:05.132Z,993.60
2019-03-28T07:22:04.706Z,993.68
2019-03-28T07:23:05.089Z,993.65
2019-03-28T07:24:05.449Z,993.60
2019-03-28T07:25:05.496Z,993.71
2019-03-28T07:26:05.206Z,993.48
2019-03-28T07:27:05.495Z,993.48
2019-03-28T07:28:06.841Z,993.68
2019-03-28T07:29:04.628Z,993.68
2019-03-28T07:30:05.458Z,993.71
2019-03-28T07:31:05.534Z,993.74
2019-03-28T07:32:05.037Z,993.71
2019-03-28T07:33:05.416Z,993.71
2019-03-28T07:34:04.776Z,993.74
2019-03-28T07:35:05.389Z,993.77
2019-03-28T07:36:04.546Z,993.79
2019-03-28T07:37:05.198Z,993.60
2019-03-28T07:38:04.808Z,993.71
2019-03-28T07:39:04.840Z,993.74
2019-03-28T07:40:05.044Z,993.68
2019-03-28T07:41:05.447Z,993.74
2019-03-28T07:42:05.180Z,993.76
2019-03-28T07:43:09.656Z,993.74
2019-03-28T07:44:05.230Z,993.76
2019-03-28T07:45:05.205Z,993.85
2019-03-28T07:46:04.718Z,993.82
2019-03-28T07:47:05.077Z,993.74
2019-03-28T07:48:05.234Z,993.76
2019-03-28T07:49:05.373Z,993.76
2019-03-28T07:50:05.151Z,993.76
2019-03-28T07:51:05.320Z,993.71
2019-03-28T07:52:05.557Z,993.79
2019-03-28T07:53:05.000Z,993.56
2019-03-28T07:54:05.166Z,993.85
2019-03-28T07:55:05.999Z,993.93
2019-03-28T07:56:04.987Z,993.85
2019-03-28T07:57:05.107Z,993.96
2019-03-28T07:58:09.113Z,993.90
2019-03-28T07:59:05.299Z,993.88
2019-03-28T08:00:05.804Z,993.76
2019-03-28T08:01:05.513Z,993.82
2019-03-28T08:02:04.751Z,993.85
2019-03-28T08:03:10.496Z,993.73
2019-03-28T08:04:04.968Z,993.79
2019-03-28T08:05:05.169Z,993.65
2019-03-28T08:06:05.416Z,993.79
2019-03-28T08:07:04.704Z,993.73
2019-03-28T08:08:05.483Z,993.85
2019-03-28T08:09:05.129Z,993.85
2019-03-28T08:10:05.198Z,993.79
2019-03-28T08:11:05.243Z,993.79
2019-03-28T08:12:05.526Z,993.90
2019-03-28T08:13:05.063Z,993.79
2019-03-28T08:14:05.474Z,993.99
2019-03-28T08:15:04.894Z,993.93
2019-03-28T08:16:05.178Z,993.96
2019-03-28T08:17:04.734Z,993.96
2019-03-28T08:18:05.532Z,993.85
2019-03-28T08:19:08.301Z,993.99
2019-03-28T08:20:04.919Z,993.93
2019-03-28T08:21:05.158Z,993.76
2019-03-28T08:22:05.150Z,993.93
2019-03-28T08:23:04.994Z,993.87
2019-03-28T08:24:05.234Z,993.93
2019-03-28T08:25:11.778Z,993.73
2019-03-28T08:26:04.890Z,993.84
2019-03-28T08:27:05.402Z,993.90
2019-03-28T08:28:04.563Z,993.96
2019-03-28T08:29:05.424Z,993.84
2019-03-28T08:30:19.372Z,994.04
2019-03-28T08:31:05.374Z,993.90
2019-03-28T08:32:05.628Z,994.01
2019-03-28T08:33:04.646Z,993.87
2019-03-28T08:34:04.838Z,993.87
2019-03-28T08:35:05.038Z,994.01
2019-03-28T08:36:05.381Z,993.93
2019-03-28T08:37:05.122Z,994.04
2019-03-28T08:38:05.353Z,993.96
2019-03-28T08:39:05.186Z,993.93
2019-03-28T08:40:04.666Z,993.76
2019-03-28T08:41:07.536Z,993.87
2019-03-28T08:42:05.203Z,993.87
2019-03-28T08:43:09.634Z,993.87
2019-03-28T08:44:07.658Z,993.96
2019-03-28T08:45:05.391Z,993.96
2019-03-28T08:46:05.014Z,993.87
2019-03-28T08:47:06.614Z,993.96
2019-03-28T08:48:05.512Z,993.96
2019-03-28T08:49:05.008Z,993.90
2019-03-28T08:50:05.001Z,994.01
2019-03-28T08:51:04.768Z,993.90
2019-03-28T08:52:04.973Z,993.90
2019-03-28T08:53:05.375Z,993.90
2019-03-28T08:54:05.374Z,993.95
2019-03-28T08:55:05.151Z,993.90
2019-03-28T08:56:05.123Z,994.07
2019-03-28T08:57:05.231Z,993.98
2019-03-28T08:58:05.460Z,993.87
2019-03-28T08:59:05.038Z,993.98
2019-03-28T09:00:04.585Z,993.92
2019-03-28T09:01:06.379Z,993.95
2019-03-28T09:02:05.590Z,993.90
2019-03-28T09:03:05.371Z,993.87
2019-03-28T09:04:04.549Z,993.98
2019-03-28T09:05:04.843Z,993.75
2019-03-28T09:06:05.062Z,993.87
2019-03-28T09:07:05.616Z,993.92
2019-03-28T09:08:10.025Z,993.81
2019-03-28T09:09:05.528Z,993.92
2019-03-28T09:10:04.576Z,993.95
2019-03-28T09:11:05.188Z,993.78
2019-03-28T09:12:05.576Z,993.89
2019-03-28T09:13:04.744Z,993.81
2019-03-28T09:14:05.100Z,993.95
2019-03-28T09:15:05.469Z,993.98
2019-03-28T09:16:05.042Z,993.98
2019-03-28T09:17:04.714Z,993.92
2019-03-28T09:18:04.961Z,993.81
2019-03-28T09:19:05.086Z,993.98
2019-03-28T09:20:04.543Z,993.92
2019-03-28T09:21:04.743Z,993.95
2019-03-28T09:22:05.023Z,994.03
2019-03-28T09:23:05.410Z,993.98
2019-03-28T09:24:05.296Z,993.81
2019-03-28T09:25:05.406Z,993.89
2019-03-28T09:26:05.123Z,993.89
2019-03-28T09:27:04.979Z,993.92
2019-03-28T09:28:05.376Z,993.72
2019-03-28T09:29:04.778Z,993.83
2019-03-28T09:30:04.971Z,993.92
2019-03-28T09:31:18.873Z,993.78
2019-03-28T09:32:05.013Z,993.83
2019-03-28T09:33:05.219Z,993.95
2019-03-28T09:34:04.634Z,993.95
2019-03-28T09:35:04.947Z,993.95
2019-03-28T09:36:05.422Z,993.95
2019-03-28T09:37:05.001Z,993.92
2019-03-28T09:38:05.373Z,993.83
2019-03-28T09:39:04.793Z,993.89
2019-03-28T09:40:04.920Z,993.78
2019-03-28T09:41:05.146Z,993.80
2019-03-28T09:42:05.244Z,993.80
2019-03-28T09:43:10.153Z,993.80
2019-03-28T09:44:04.775Z,993.92
2019-03-28T09:45:05.027Z,993.92
2019-03-28T09:46:05.417Z,993.83
2019-03-28T09:47:04.651Z,993.75
2019-03-28T09:48:05.412Z,993.83
2019-03-28T09:49:04.550Z,993.92
2019-03-28T09:50:05.114Z,993.77
2019-03-28T09:51:05.283Z,993.72
2019-03-28T09:52:05.061Z,993.83
2019-03-28T09:53:05.260Z,993.86
2019-03-28T09:54:05.381Z,993.72
2019-03-28T09:55:04.642Z,993.77
2019-03-28T09:56:04.773Z,993.92
2019-03-28T09:57:05.052Z,993.77
2019-03-28T09:58:05.158Z,993.77
2019-03-28T09:59:05.410Z,993.77
2019-03-28T10:00:04.661Z,993.86
2019-03-28T10:01:05.544Z,993.86
2019-03-28T10:02:04.721Z,993.80
2019-03-28T10:03:04.893Z,993.80
2019-03-28T10:04:06.969Z,993.89
2019-03-28T10:05:04.745Z,993.91
2019-03-28T10:06:04.963Z,993.83
2019-03-28T10:07:06.065Z,993.77
2019-03-28T10:08:04.911Z,993.80
2019-03-28T10:09:04.984Z,993.83
2019-03-28T10:10:08.889Z,993.88
2019-03-28T10:11:05.120Z,993.77
2019-03-28T10:12:05.366Z,993.77
2019-03-28T10:13:05.541Z,993.85
2019-03-28T10:14:04.810Z,993.88
2019-03-28T10:15:04.527Z,993.85
2019-03-28T10:16:10.161Z,993.80
2019-03-28T10:17:04.771Z,993.94
2019-03-28T10:18:05.326Z,993.82
2019-03-28T10:19:04.846Z,993.94
2019-03-28T10:20:06.126Z,993.88
2019-03-28T10:21:04.780Z,993.94
2019-03-28T10:22:05.012Z,993.82
2019-03-28T10:23:04.591Z,993.71
2019-03-28T10:24:05.119Z,993.88
2019-03-28T10:25:04.837Z,993.80
2019-03-28T10:26:05.090Z,993.77
2019-03-28T10:27:05.470Z,993.85
2019-03-28T10:28:05.434Z,993.82
2019-03-28T10:29:05.551Z,993.99
2019-03-28T10:30:04.859Z,993.77
2019-03-28T10:31:17.033Z,993.85
2019-03-28T10:32:04.883Z,993.88
2019-03-28T10:33:05.425Z,993.77
2019-03-28T10:34:05.415Z,993.82
2019-03-28T10:35:07.503Z,993.74
2019-03-28T10:36:05.221Z,993.96
2019-03-28T10:37:05.387Z,993.91
2019-03-28T10:38:04.647Z,993.71
2019-03-28T10:39:05.330Z,993.85
2019-03-28T10:40:04.564Z,993.91
2019-03-28T10:41:04.848Z,993.82
2019-03-28T10:42:05.394Z,993.91
2019-03-28T10:43:10.521Z,993.91
2019-03-28T10:44:05.059Z,993.94
2019-03-28T10:45:05.587Z,993.94
2019-03-28T10:46:05.295Z,993.91
2019-03-28T10:47:05.525Z,993.91
2019-03-28T10:48:04.585Z,993.85
2019-03-28T10:49:04.720Z,994.05
2019-03-28T10:50:04.905Z,993.97
2019-03-28T10:51:04.997Z,994.08
2019-03-28T10:52:05.036Z,993.97
2019-03-28T10:53:05.351Z,993.88
2019-03-28T10:54:20.840Z,993.97
2019-03-28T10:55:04.675Z,993.97
2019-03-28T10:56:04.815Z,994.00
2019-03-28T10:57:28.852Z,993.97
2019-03-28T10:58:19.439Z,993.97
2019-03-28T10:59:05.186Z,994.00
2019-03-28T11:00:04.580Z,993.88
2019-03-28T11:01:04.673Z,994.02
2019-03-28T11:02:05.288Z,993.88
2019-03-28T11:03:05.582Z,993.88
2019-03-28T11:04:04.721Z,993.91
2019-03-28T11:05:05.144Z,993.94
2019-03-28T11:06:04.815Z,993.94
2019-03-28T11:07:05.325Z,994.02
2019-03-28T11:08:04.684Z,993.99
2019-03-28T11:09:05.140Z,993.96
2019-03-28T11:10:05.492Z,993.85
2019-03-28T11:11:04.794Z,993.96
2019-03-28T11:12:05.492Z,993.82
2019-03-28T11:13:04.623Z,993.99
2019-03-28T11:14:05.125Z,993.96
2019-03-28T11:15:05.121Z,994.05
2019-03-28T11:16:04.749Z,993.90
2019-03-28T11:17:05.328Z,994.07
2019-03-28T11:18:05.498Z,993.96
2019-03-28T11:19:04.955Z,993.99
2019-03-28T11:20:04.617Z,994.10
2019-03-28T11:21:05.979Z,993.93
2019-03-28T11:22:04.619Z,993.96
2019-03-28T11:23:07.230Z,993.99
2019-03-28T11:24:04.914Z,993.93
2019-03-28T11:25:05.128Z,993.96
2019-03-28T11:26:04.568Z,993.93
2019-03-28T11:27:05.092Z,993.90
2019-03-28T11:28:04.731Z,993.93
2019-03-28T11:29:04.949Z,993.73
2019-03-28T11:30:04.994Z,993.84
2019-03-28T11:31:05.379Z,994.02
2019-03-28T11:32:05.034Z,993.87
2019-03-28T11:33:06.869Z,993.90
2019-03-28T11:34:04.554Z,993.93
2019-03-28T11:35:05.072Z,993.90
2019-03-28T11:36:05.358Z,993.82
2019-03-28T11:37:20.052Z,993.84
2019-03-28T11:38:04.555Z,993.82
2019-03-28T11:39:04.772Z,993.96
2019-03-28T11:40:05.206Z,994.02
2019-03-28T11:41:05.274Z,993.84
2019-03-28T11:42:04.762Z,993.96
2019-03-28T11:43:10.164Z,993.90
2019-03-28T11:44:04.777Z,993.96
2019-03-28T11:45:04.637Z,993.87
2019-03-28T11:46:04.925Z,993.96
2019-03-28T11:47:05.004Z,993.90
2019-03-28T11:48:05.288Z,993.73
2019-03-28T11:49:04.903Z,993.82
2019-03-28T11:50:05.169Z,993.90
2019-03-28T11:51:05.137Z,993.96
2019-03-28T11:52:05.351Z,993.84
2019-03-28T11:53:04.592Z,993.70
2019-03-28T11:54:04.826Z,993.81
2019-03-28T11:55:05.309Z,993.84
2019-03-28T11:56:05.536Z,993.81
2019-03-28T11:57:04.620Z,993.70
2019-03-28T11:58:04.811Z,993.84
2019-03-28T11:59:06.591Z,993.76
2019-03-28T12:00:05.330Z,993.78
2019-03-28T12:01:04.879Z,993.87
2019-03-28T12:02:20.671Z,993.87
2019-03-28T12:03:05.356Z,993.67
2019-03-28T12:04:05.540Z,993.78
2019-03-28T12:05:05.334Z,993.84
2019-03-28T12:06:05.084Z,993.73
2019-03-28T12:07:05.165Z,993.76
2019-03-28T12:08:04.911Z,993.64
2019-03-28T12:09:05.233Z,993.81
2019-03-28T12:10:05.112Z,993.73
2019-03-28T12:11:05.050Z,993.73
2019-03-28T12:12:04.632Z,993.81
2019-03-28T12:13:04.889Z,993.73
2019-03-28T12:14:05.373Z,993.67
2019-03-28T12:15:05.514Z,993.67
2019-03-28T12:16:04.648Z,993.73
2019-03-28T12:17:05.365Z,993.70
2019-03-28T12:18:05.174Z,993.59
2019-03-28T12:19:05.328Z,993.76
2019-03-28T12:20:05.608Z,993.76
2019-03-28T12:21:05.155Z,993.84
2019-03-28T12:22:04.694Z,993.79
2019-03-28T12:23:04.747Z,993.67
2019-03-28T12:24:05.105Z,993.76
2019-03-28T12:25:05.345Z,993.76
2019-03-28T12:26:04.745Z,993.70
2019-03-28T12:27:04.831Z,993.73
2019-03-28T12:28:04.976Z,993.76